sensor_id;sensor_type;location;lat;lon;timestamp;P1;durP1;ratioP1;P2;durP2;ratioP2
18606;SDS011;9433;42.678;23.360;2022-07-31T00:00:04;8.70;;;6.83;;
18606;SDS011;9433;42.678;23.360;2022-07-31T00:02:32;8.13;;;6.77;;
18606;SDS011;9433;42.678;23.360;2022-07-31T00:04:58;8.07;;;7.27;;
18606;SDS011;9433;42.678;23.360;2022-07-31T00:07:25;10.07;;;7.60;;
18606;SDS011;9433;42.678;23.360;2022-07-31T00:09:52;7.67;;;6.77;;
18606;SDS011;9433;42.678;23.360;2022-07-31T00:12:19;8.43;;;7.27;;
18606;SDS011;9433;42.678;23.360;2022-07-31T00:14:46;11.00;;;7.70;;
18606;SDS011;9433;42.678;23.360;2022-07-31T00:17:15;10.53;;;7.77;;
18606;SDS011;9433;42.678;23.360;2022-07-31T00:19:41;7.63;;;6.80;;
18606;SDS011;9433;42.678;23.360;2022-07-31T00:22:08;9.90;;;7.87;;
18606;SDS011;9433;42.678;23.360;2022-07-31T00:24:36;9.93;;;7.90;;
18606;SDS011;9433;42.678;23.360;2022-07-31T00:27:03;7.80;;;6.90;;
18606;SDS011;9433;42.678;23.360;2022-07-31T00:29:30;9.40;;;7.73;;
18606;SDS011;9433;42.678;23.360;2022-07-31T00:31:57;10.10;;;7.67;;
18606;SDS011;9433;42.678;23.360;2022-07-31T00:34:25;10.90;;;7.80;;
18606;SDS011;9433;42.678;23.360;2022-07-31T00:36:51;9.93;;;7.40;;
18606;SDS011;9433;42.678;23.360;2022-07-31T00:39:18;8.20;;;7.40;;
18606;SDS011;9433;42.678;23.360;2022-07-31T00:41:45;12.03;;;8.93;;
18606;SDS011;9433;42.678;23.360;2022-07-31T00:44:13;9.97;;;8.87;;
18606;SDS011;9433;42.678;23.360;2022-07-31T00:46:40;10.30;;;8.80;;
18606;SDS011;9433;42.678;23.360;2022-07-31T00:49:09;12.57;;;9.77;;
18606;SDS011;9433;42.678;23.360;2022-07-31T00:51:37;12.87;;;10.93;;
18606;SDS011;9433;42.678;23.360;2022-07-31T00:54:05;13.13;;;10.83;;
18606;SDS011;9433;42.678;23.360;2022-07-31T00:56:33;13.50;;;10.97;;
18606;SDS011;9433;42.678;23.360;2022-07-31T00:59:00;11.37;;;9.80;;
18606;SDS011;9433;42.678;23.360;2022-07-31T01:01:27;12.30;;;10.07;;
18606;SDS011;9433;42.678;23.360;2022-07-31T01:03:54;14.47;;;10.00;;
18606;SDS011;9433;42.678;23.360;2022-07-31T01:06:21;10.60;;;9.50;;
18606;SDS011;9433;42.678;23.360;2022-07-31T01:08:49;15.03;;;10.70;;
18606;SDS011;9433;42.678;23.360;2022-07-31T01:11:18;11.93;;;10.67;;
18606;SDS011;9433;42.678;23.360;2022-07-31T01:13:51;12.43;;;10.17;;
18606;SDS011;9433;42.678;23.360;2022-07-31T01:16:21;13.03;;;10.90;;
18606;SDS011;9433;42.678;23.360;2022-07-31T01:18:49;11.57;;;10.37;;
18606;SDS011;9433;42.678;23.360;2022-07-31T01:21:20;12.33;;;9.97;;
18606;SDS011;9433;42.678;23.360;2022-07-31T01:24:11;10.80;;;9.70;;
18606;SDS011;9433;42.678;23.360;2022-07-31T01:26:48;12.03;;;10.53;;
18606;SDS011;9433;42.678;23.360;2022-07-31T01:29:21;14.20;;;9.97;;
18606;SDS011;9433;42.678;23.360;2022-07-31T01:31:52;12.87;;;10.47;;
18606;SDS011;9433;42.678;23.360;2022-07-31T01:34:25;11.60;;;10.40;;
18606;SDS011;9433;42.678;23.360;2022-07-31T01:36:59;12.67;;;9.93;;
18606;SDS011;9433;42.678;23.360;2022-07-31T01:39:31;13.83;;;10.50;;
18606;SDS011;9433;42.678;23.360;2022-07-31T01:42:01;11.00;;;9.63;;
18606;SDS011;9433;42.678;23.360;2022-07-31T01:44:35;12.10;;;10.20;;
18606;SDS011;9433;42.678;23.360;2022-07-31T01:47:06;12.93;;;10.10;;
18606;SDS011;9433;42.678;23.360;2022-07-31T01:49:35;13.03;;;10.20;;
18606;SDS011;9433;42.678;23.360;2022-07-31T01:52:04;10.67;;;9.13;;
18606;SDS011;9433;42.678;23.360;2022-07-31T01:54:32;10.27;;;9.27;;
18606;SDS011;9433;42.678;23.360;2022-07-31T01:57:00;9.33;;;8.27;;
18606;SDS011;9433;42.678;23.360;2022-07-31T01:59:29;8.90;;;8.00;;
18606;SDS011;9433;42.678;23.360;2022-07-31T02:02:00;9.40;;;8.17;;
18606;SDS011;9433;42.678;23.360;2022-07-31T02:04:28;10.27;;;8.27;;
18606;SDS011;9433;42.678;23.360;2022-07-31T02:06:57;12.20;;;8.70;;
18606;SDS011;9433;42.678;23.360;2022-07-31T02:09:26;10.80;;;8.27;;
18606;SDS011;9433;42.678;23.360;2022-07-31T02:11:54;9.57;;;8.57;;
18606;SDS011;9433;42.678;23.360;2022-07-31T02:14:22;11.77;;;8.97;;
18606;SDS011;9433;42.678;23.360;2022-07-31T02:16:50;12.17;;;10.00;;
18606;SDS011;9433;42.678;23.360;2022-07-31T02:19:18;9.90;;;8.83;;
18606;SDS011;9433;42.678;23.360;2022-07-31T02:21:46;11.67;;;9.33;;
18606;SDS011;9433;42.678;23.360;2022-07-31T02:24:13;12.20;;;9.10;;
18606;SDS011;9433;42.678;23.360;2022-07-31T02:26:40;12.47;;;9.30;;
18606;SDS011;9433;42.678;23.360;2022-07-31T02:29:07;10.87;;;8.83;;
18606;SDS011;9433;42.678;23.360;2022-07-31T02:31:38;10.53;;;9.43;;
18606;SDS011;9433;42.678;23.360;2022-07-31T02:34:08;11.07;;;9.87;;
18606;SDS011;9433;42.678;23.360;2022-07-31T02:36:37;13.17;;;9.00;;
18606;SDS011;9433;42.678;23.360;2022-07-31T02:39:05;12.87;;;8.70;;
18606;SDS011;9433;42.678;23.360;2022-07-31T02:41:34;11.50;;;8.97;;
18606;SDS011;9433;42.678;23.360;2022-07-31T02:44:01;10.90;;;8.73;;
18606;SDS011;9433;42.678;23.360;2022-07-31T02:46:29;9.57;;;7.30;;
18606;SDS011;9433;42.678;23.360;2022-07-31T02:48:56;7.77;;;6.47;;
18606;SDS011;9433;42.678;23.360;2022-07-31T02:51:23;7.60;;;6.23;;
18606;SDS011;9433;42.678;23.360;2022-07-31T02:53:52;7.23;;;6.07;;
18606;SDS011;9433;42.678;23.360;2022-07-31T02:56:19;7.73;;;6.27;;
18606;SDS011;9433;42.678;23.360;2022-07-31T02:58:48;8.27;;;6.60;;
18606;SDS011;9433;42.678;23.360;2022-07-31T03:01:15;10.70;;;7.67;;
18606;SDS011;9433;42.678;23.360;2022-07-31T03:03:42;8.73;;;7.70;;
18606;SDS011;9433;42.678;23.360;2022-07-31T03:06:09;10.70;;;9.00;;
18606;SDS011;9433;42.678;23.360;2022-07-31T03:08:36;14.30;;;8.63;;
18606;SDS011;9433;42.678;23.360;2022-07-31T03:11:04;10.20;;;8.70;;
18606;SDS011;9433;42.678;23.360;2022-07-31T03:13:31;12.43;;;7.63;;
18606;SDS011;9433;42.678;23.360;2022-07-31T03:16:00;9.03;;;7.80;;
18606;SDS011;9433;42.678;23.360;2022-07-31T03:18:28;11.37;;;9.73;;
18606;SDS011;9433;42.678;23.360;2022-07-31T03:20:56;11.03;;;9.23;;
18606;SDS011;9433;42.678;23.360;2022-07-31T03:23:24;10.47;;;8.83;;
18606;SDS011;9433;42.678;23.360;2022-07-31T03:25:52;13.17;;;9.57;;
18606;SDS011;9433;42.678;23.360;2022-07-31T03:28:21;11.60;;;8.80;;
18606;SDS011;9433;42.678;23.360;2022-07-31T03:30:49;10.73;;;9.07;;
18606;SDS011;9433;42.678;23.360;2022-07-31T03:33:17;11.10;;;10.00;;
18606;SDS011;9433;42.678;23.360;2022-07-31T03:35:44;11.37;;;9.57;;
18606;SDS011;9433;42.678;23.360;2022-07-31T03:38:10;10.33;;;9.03;;
18606;SDS011;9433;42.678;23.360;2022-07-31T03:40:37;10.07;;;8.73;;
18606;SDS011;9433;42.678;23.360;2022-07-31T03:43:04;10.13;;;8.07;;
18606;SDS011;9433;42.678;23.360;2022-07-31T03:45:33;9.30;;;7.93;;
18606;SDS011;9433;42.678;23.360;2022-07-31T03:48:03;9.13;;;8.13;;
18606;SDS011;9433;42.678;23.360;2022-07-31T03:50:32;10.07;;;8.20;;
18606;SDS011;9433;42.678;23.360;2022-07-31T03:53:01;8.63;;;7.73;;
18606;SDS011;9433;42.678;23.360;2022-07-31T03:55:28;10.77;;;8.10;;
18606;SDS011;9433;42.678;23.360;2022-07-31T03:57:56;8.07;;;7.27;;
18606;SDS011;9433;42.678;23.360;2022-07-31T04:00:24;10.33;;;8.37;;
18606;SDS011;9433;42.678;23.360;2022-07-31T04:02:54;9.53;;;7.93;;
18606;SDS011;9433;42.678;23.360;2022-07-31T04:05:22;10.97;;;8.13;;
18606;SDS011;9433;42.678;23.360;2022-07-31T04:07:49;9.63;;;8.60;;
18606;SDS011;9433;42.678;23.360;2022-07-31T04:10:16;10.60;;;8.63;;
18606;SDS011;9433;42.678;23.360;2022-07-31T04:12:43;10.70;;;8.83;;
18606;SDS011;9433;42.678;23.360;2022-07-31T04:15:10;11.80;;;8.90;;
18606;SDS011;9433;42.678;23.360;2022-07-31T04:17:36;10.67;;;8.77;;
18606;SDS011;9433;42.678;23.360;2022-07-31T04:20:06;10.23;;;8.63;;
18606;SDS011;9433;42.678;23.360;2022-07-31T04:22:33;12.40;;;8.53;;
18606;SDS011;9433;42.678;23.360;2022-07-31T04:25:00;11.00;;;8.20;;
18606;SDS011;9433;42.678;23.360;2022-07-31T04:27:27;11.47;;;8.10;;
18606;SDS011;9433;42.678;23.360;2022-07-31T04:29:54;12.33;;;9.60;;
18606;SDS011;9433;42.678;23.360;2022-07-31T04:32:21;13.07;;;9.83;;
18606;SDS011;9433;42.678;23.360;2022-07-31T04:34:48;12.03;;;9.70;;
18606;SDS011;9433;42.678;23.360;2022-07-31T04:37:16;12.13;;;10.00;;
18606;SDS011;9433;42.678;23.360;2022-07-31T04:39:43;11.43;;;8.90;;
18606;SDS011;9433;42.678;23.360;2022-07-31T04:42:10;13.10;;;9.73;;
18606;SDS011;9433;42.678;23.360;2022-07-31T04:44:37;14.63;;;10.47;;
18606;SDS011;9433;42.678;23.360;2022-07-31T04:47:04;11.53;;;8.43;;
18606;SDS011;9433;42.678;23.360;2022-07-31T04:49:32;12.03;;;9.33;;
18606;SDS011;9433;42.678;23.360;2022-07-31T04:51:59;13.07;;;10.00;;
18606;SDS011;9433;42.678;23.360;2022-07-31T04:54:27;12.03;;;8.60;;
18606;SDS011;9433;42.678;23.360;2022-07-31T04:56:54;12.67;;;9.10;;
18606;SDS011;9433;42.678;23.360;2022-07-31T04:59:21;10.60;;;9.23;;
18606;SDS011;9433;42.678;23.360;2022-07-31T05:01:49;11.83;;;9.03;;
18606;SDS011;9433;42.678;23.360;2022-07-31T05:04:16;11.13;;;8.50;;
18606;SDS011;9433;42.678;23.360;2022-07-31T05:06:44;12.70;;;8.50;;
18606;SDS011;9433;42.678;23.360;2022-07-31T05:09:13;10.33;;;8.77;;
18606;SDS011;9433;42.678;23.360;2022-07-31T05:11:42;9.77;;;8.03;;
18606;SDS011;9433;42.678;23.360;2022-07-31T05:14:11;8.67;;;7.77;;
18606;SDS011;9433;42.678;23.360;2022-07-31T05:16:39;10.63;;;8.13;;
18606;SDS011;9433;42.678;23.360;2022-07-31T05:19:06;10.33;;;8.00;;
18606;SDS011;9433;42.678;23.360;2022-07-31T05:21:33;10.60;;;7.57;;
18606;SDS011;9433;42.678;23.360;2022-07-31T05:24:00;10.20;;;7.90;;
18606;SDS011;9433;42.678;23.360;2022-07-31T05:26:27;9.73;;;7.77;;
18606;SDS011;9433;42.678;23.360;2022-07-31T05:28:57;9.20;;;7.03;;
18606;SDS011;9433;42.678;23.360;2022-07-31T05:31:25;8.40;;;7.50;;
18606;SDS011;9433;42.678;23.360;2022-07-31T05:33:52;8.20;;;7.07;;
18606;SDS011;9433;42.678;23.360;2022-07-31T05:36:19;7.97;;;7.13;;
18606;SDS011;9433;42.678;23.360;2022-07-31T05:38:46;8.27;;;7.13;;
18606;SDS011;9433;42.678;23.360;2022-07-31T05:41:12;7.83;;;6.87;;
18606;SDS011;9433;42.678;23.360;2022-07-31T05:43:39;7.67;;;6.87;;
18606;SDS011;9433;42.678;23.360;2022-07-31T05:46:08;8.37;;;7.47;;
18606;SDS011;9433;42.678;23.360;2022-07-31T05:48:38;6.93;;;6.33;;
18606;SDS011;9433;42.678;23.360;2022-07-31T05:51:06;10.20;;;7.10;;
18606;SDS011;9433;42.678;23.360;2022-07-31T05:53:34;9.00;;;7.07;;
18606;SDS011;9433;42.678;23.360;2022-07-31T05:56:02;7.87;;;7.07;;
18606;SDS011;9433;42.678;23.360;2022-07-31T05:58:29;7.63;;;6.80;;
18606;SDS011;9433;42.678;23.360;2022-07-31T06:00:56;7.17;;;6.23;;
18606;SDS011;9433;42.678;23.360;2022-07-31T06:03:24;8.33;;;6.90;;
18606;SDS011;9433;42.678;23.360;2022-07-31T06:05:53;7.40;;;6.63;;
18606;SDS011;9433;42.678;23.360;2022-07-31T06:08:20;11.60;;;6.57;;
18606;SDS011;9433;42.678;23.360;2022-07-31T06:10:47;8.17;;;6.87;;
18606;SDS011;9433;42.678;23.360;2022-07-31T06:13:14;8.17;;;6.63;;
18606;SDS011;9433;42.678;23.360;2022-07-31T06:15:41;6.77;;;6.07;;
18606;SDS011;9433;42.678;23.360;2022-07-31T06:18:08;7.20;;;6.43;;
18606;SDS011;9433;42.678;23.360;2022-07-31T06:20:36;8.30;;;6.70;;
18606;SDS011;9433;42.678;23.360;2022-07-31T06:23:03;8.83;;;6.87;;
18606;SDS011;9433;42.678;23.360;2022-07-31T06:25:29;9.00;;;8.10;;
18606;SDS011;9433;42.678;23.360;2022-07-31T06:27:56;8.40;;;7.20;;
18606;SDS011;9433;42.678;23.360;2022-07-31T06:30:23;8.40;;;6.43;;
18606;SDS011;9433;42.678;23.360;2022-07-31T06:32:50;8.83;;;7.87;;
18606;SDS011;9433;42.678;23.360;2022-07-31T06:35:17;11.17;;;8.20;;
18606;SDS011;9433;42.678;23.360;2022-07-31T06:37:45;9.73;;;7.73;;
18606;SDS011;9433;42.678;23.360;2022-07-31T06:40:12;8.93;;;7.77;;
18606;SDS011;9433;42.678;23.360;2022-07-31T06:42:39;10.80;;;8.00;;
18606;SDS011;9433;42.678;23.360;2022-07-31T06:45:06;9.17;;;7.33;;
18606;SDS011;9433;42.678;23.360;2022-07-31T06:47:34;8.77;;;7.73;;
18606;SDS011;9433;42.678;23.360;2022-07-31T06:50:01;8.33;;;7.00;;
18606;SDS011;9433;42.678;23.360;2022-07-31T06:52:27;10.00;;;7.90;;
18606;SDS011;9433;42.678;23.360;2022-07-31T06:54:56;12.27;;;8.20;;
18606;SDS011;9433;42.678;23.360;2022-07-31T06:57:22;11.23;;;9.00;;
18606;SDS011;9433;42.678;23.360;2022-07-31T06:59:49;12.20;;;9.20;;
18606;SDS011;9433;42.678;23.360;2022-07-31T07:02:16;13.60;;;9.00;;
18606;SDS011;9433;42.678;23.360;2022-07-31T07:04:43;9.57;;;8.53;;
18606;SDS011;9433;42.678;23.360;2022-07-31T07:07:09;10.43;;;8.67;;
18606;SDS011;9433;42.678;23.360;2022-07-31T07:09:39;10.50;;;8.60;;
18606;SDS011;9433;42.678;23.360;2022-07-31T07:12:07;9.83;;;8.47;;
18606;SDS011;9433;42.678;23.360;2022-07-31T07:14:34;12.07;;;9.07;;
18606;SDS011;9433;42.678;23.360;2022-07-31T07:17:02;13.43;;;9.07;;
18606;SDS011;9433;42.678;23.360;2022-07-31T07:19:30;10.97;;;8.77;;
18606;SDS011;9433;42.678;23.360;2022-07-31T07:21:56;9.63;;;7.87;;
18606;SDS011;9433;42.678;23.360;2022-07-31T07:24:23;9.63;;;8.20;;
18606;SDS011;9433;42.678;23.360;2022-07-31T07:26:50;11.93;;;8.87;;
18606;SDS011;9433;42.678;23.360;2022-07-31T07:29:18;10.77;;;8.97;;
18606;SDS011;9433;42.678;23.360;2022-07-31T07:31:45;10.10;;;8.27;;
18606;SDS011;9433;42.678;23.360;2022-07-31T07:34:11;10.40;;;8.57;;
18606;SDS011;9433;42.678;23.360;2022-07-31T07:36:38;13.07;;;9.63;;
18606;SDS011;9433;42.678;23.360;2022-07-31T07:39:05;12.53;;;9.63;;
18606;SDS011;9433;42.678;23.360;2022-07-31T07:41:33;11.87;;;10.23;;
18606;SDS011;9433;42.678;23.360;2022-07-31T07:44:00;11.10;;;9.40;;
18606;SDS011;9433;42.678;23.360;2022-07-31T07:46:28;13.10;;;10.00;;
18606;SDS011;9433;42.678;23.360;2022-07-31T07:48:55;12.67;;;9.93;;
18606;SDS011;9433;42.678;23.360;2022-07-31T07:51:21;10.60;;;8.93;;
18606;SDS011;9433;42.678;23.360;2022-07-31T07:53:48;12.60;;;10.33;;
18606;SDS011;9433;42.678;23.360;2022-07-31T07:56:15;12.73;;;10.50;;
18606;SDS011;9433;42.678;23.360;2022-07-31T07:58:42;14.10;;;10.43;;
18606;SDS011;9433;42.678;23.360;2022-07-31T08:01:09;12.27;;;9.47;;
18606;SDS011;9433;42.678;23.360;2022-07-31T08:03:37;11.37;;;9.73;;
18606;SDS011;9433;42.678;23.360;2022-07-31T08:06:04;12.80;;;9.43;;
18606;SDS011;9433;42.678;23.360;2022-07-31T08:08:31;11.00;;;9.33;;
18606;SDS011;9433;42.678;23.360;2022-07-31T08:10:57;13.53;;;8.47;;
18606;SDS011;9433;42.678;23.360;2022-07-31T08:13:25;11.80;;;8.83;;
18606;SDS011;9433;42.678;23.360;2022-07-31T08:15:52;11.33;;;7.73;;
18606;SDS011;9433;42.678;23.360;2022-07-31T08:18:18;10.47;;;7.33;;
18606;SDS011;9433;42.678;23.360;2022-07-31T08:20:47;8.87;;;6.83;;
18606;SDS011;9433;42.678;23.360;2022-07-31T08:23:13;9.90;;;7.83;;
18606;SDS011;9433;42.678;23.360;2022-07-31T08:25:40;9.63;;;7.13;;
18606;SDS011;9433;42.678;23.360;2022-07-31T08:28:07;10.97;;;7.73;;
18606;SDS011;9433;42.678;23.360;2022-07-31T08:30:34;9.20;;;6.97;;
18606;SDS011;9433;42.678;23.360;2022-07-31T08:33:00;11.37;;;7.73;;
18606;SDS011;9433;42.678;23.360;2022-07-31T08:35:27;8.90;;;7.80;;
18606;SDS011;9433;42.678;23.360;2022-07-31T08:37:55;8.93;;;7.63;;
18606;SDS011;9433;42.678;23.360;2022-07-31T08:40:22;10.07;;;7.80;;
18606;SDS011;9433;42.678;23.360;2022-07-31T08:42:50;7.50;;;6.67;;
18606;SDS011;9433;42.678;23.360;2022-07-31T08:45:17;9.20;;;6.73;;
18606;SDS011;9433;42.678;23.360;2022-07-31T08:47:45;7.57;;;6.37;;
18606;SDS011;9433;42.678;23.360;2022-07-31T08:50:13;7.73;;;6.37;;
18606;SDS011;9433;42.678;23.360;2022-07-31T08:52:42;7.30;;;5.93;;
18606;SDS011;9433;42.678;23.360;2022-07-31T08:55:11;8.20;;;6.20;;
18606;SDS011;9433;42.678;23.360;2022-07-31T08:57:39;7.97;;;5.93;;
18606;SDS011;9433;42.678;23.360;2022-07-31T09:00:06;8.97;;;7.03;;
18606;SDS011;9433;42.678;23.360;2022-07-31T09:02:37;7.83;;;6.77;;
18606;SDS011;9433;42.678;23.360;2022-07-31T09:05:05;7.43;;;6.63;;
18606;SDS011;9433;42.678;23.360;2022-07-31T09:07:32;8.23;;;6.50;;
18606;SDS011;9433;42.678;23.360;2022-07-31T09:09:59;8.70;;;7.03;;
18606;SDS011;9433;42.678;23.360;2022-07-31T09:12:28;7.87;;;6.57;;
18606;SDS011;9433;42.678;23.360;2022-07-31T09:14:56;8.80;;;6.80;;
18606;SDS011;9433;42.678;23.360;2022-07-31T09:17:30;8.83;;;7.07;;
18606;SDS011;9433;42.678;23.360;2022-07-31T09:19:58;8.47;;;7.17;;
18606;SDS011;9433;42.678;23.360;2022-07-31T09:22:26;9.17;;;7.23;;
18606;SDS011;9433;42.678;23.360;2022-07-31T09:25:05;8.33;;;7.13;;
18606;SDS011;9433;42.678;23.360;2022-07-31T09:27:37;8.73;;;7.10;;
18606;SDS011;9433;42.678;23.360;2022-07-31T09:30:05;8.33;;;6.57;;
18606;SDS011;9433;42.678;23.360;2022-07-31T09:32:32;9.07;;;6.77;;
18606;SDS011;9433;42.678;23.360;2022-07-31T09:35:07;9.57;;;7.53;;
18606;SDS011;9433;42.678;23.360;2022-07-31T09:37:35;8.27;;;7.33;;
18606;SDS011;9433;42.678;23.360;2022-07-31T09:40:03;11.23;;;8.70;;
18606;SDS011;9433;42.678;23.360;2022-07-31T09:42:39;13.23;;;8.67;;
18606;SDS011;9433;42.678;23.360;2022-07-31T09:45:16;13.70;;;9.17;;
18606;SDS011;9433;42.678;23.360;2022-07-31T09:47:46;11.45;;;9.85;;
18606;SDS011;9433;42.678;23.360;2022-07-31T09:50:13;11.57;;;9.23;;
18606;SDS011;9433;42.678;23.360;2022-07-31T09:52:56;11.73;;;9.30;;
18606;SDS011;9433;42.678;23.360;2022-07-31T09:55:23;12.23;;;9.40;;
18606;SDS011;9433;42.678;23.360;2022-07-31T09:57:52;9.80;;;8.27;;
18606;SDS011;9433;42.678;23.360;2022-07-31T10:00:20;10.40;;;8.93;;
18606;SDS011;9433;42.678;23.360;2022-07-31T10:02:47;11.77;;;9.90;;
18606;SDS011;9433;42.678;23.360;2022-07-31T10:05:15;11.07;;;9.37;;
18606;SDS011;9433;42.678;23.360;2022-07-31T10:07:43;11.07;;;9.43;;
18606;SDS011;9433;42.678;23.360;2022-07-31T10:10:12;12.63;;;10.60;;
18606;SDS011;9433;42.678;23.360;2022-07-31T10:12:39;11.20;;;9.25;;
18606;SDS011;9433;42.678;23.360;2022-07-31T10:15:11;12.25;;;9.93;;
18606;SDS011;9433;42.678;23.360;2022-07-31T10:17:40;11.85;;;9.95;;
18606;SDS011;9433;42.678;23.360;2022-07-31T10:20:10;10.70;;;9.57;;
18606;SDS011;9433;42.678;23.360;2022-07-31T10:22:41;13.00;;;9.63;;
18606;SDS011;9433;42.678;23.360;2022-07-31T10:25:11;13.95;;;10.18;;
18606;SDS011;9433;42.678;23.360;2022-07-31T10:27:44;10.98;;;9.30;;
18606;SDS011;9433;42.678;23.360;2022-07-31T10:30:13;10.40;;;7.95;;
18606;SDS011;9433;42.678;23.360;2022-07-31T10:32:40;9.55;;;8.18;;
18606;SDS011;9433;42.678;23.360;2022-07-31T10:35:08;9.68;;;8.23;;
18606;SDS011;9433;42.678;23.360;2022-07-31T10:37:35;9.57;;;8.02;;
18606;SDS011;9433;42.678;23.360;2022-07-31T10:40:07;10.00;;;8.07;;
18606;SDS011;9433;42.678;23.360;2022-07-31T10:42:43;9.20;;;7.82;;
18606;SDS011;9433;42.678;23.360;2022-07-31T10:45:17;8.88;;;7.45;;
18606;SDS011;9433;42.678;23.360;2022-07-31T10:47:53;8.52;;;7.63;;
18606;SDS011;9433;42.678;23.360;2022-07-31T10:50:22;8.02;;;7.20;;
18606;SDS011;9433;42.678;23.360;2022-07-31T10:52:50;8.70;;;6.95;;
18606;SDS011;9433;42.678;23.360;2022-07-31T10:55:17;7.82;;;7.03;;
18606;SDS011;9433;42.678;23.360;2022-07-31T10:57:47;8.20;;;6.95;;
18606;SDS011;9433;42.678;23.360;2022-07-31T11:00:14;9.88;;;6.88;;
18606;SDS011;9433;42.678;23.360;2022-07-31T11:02:44;7.53;;;6.72;;
18606;SDS011;9433;42.678;23.360;2022-07-31T11:05:13;7.15;;;6.45;;
18606;SDS011;9433;42.678;23.360;2022-07-31T11:07:42;8.32;;;6.75;;
18606;SDS011;9433;42.678;23.360;2022-07-31T11:10:11;8.07;;;6.28;;
18606;SDS011;9433;42.678;23.360;2022-07-31T11:12:40;6.78;;;6.00;;
18606;SDS011;9433;42.678;23.360;2022-07-31T11:15:18;7.63;;;6.55;;
18606;SDS011;9433;42.678;23.360;2022-07-31T11:17:46;6.97;;;6.15;;
18606;SDS011;9433;42.678;23.360;2022-07-31T11:20:17;6.88;;;6.18;;
18606;SDS011;9433;42.678;23.360;2022-07-31T11:22:52;6.72;;;6.00;;
18606;SDS011;9433;42.678;23.360;2022-07-31T11:25:23;7.50;;;6.72;;
18606;SDS011;9433;42.678;23.360;2022-07-31T11:27:53;6.57;;;5.97;;
18606;SDS011;9433;42.678;23.360;2022-07-31T11:30:22;7.90;;;7.20;;
18606;SDS011;9433;42.678;23.360;2022-07-31T11:32:49;8.55;;;7.68;;
18606;SDS011;9433;42.678;23.360;2022-07-31T11:35:23;7.85;;;7.05;;
18606;SDS011;9433;42.678;23.360;2022-07-31T11:37:52;7.45;;;6.47;;
18606;SDS011;9433;42.678;23.360;2022-07-31T11:40:18;7.80;;;7.00;;
18606;SDS011;9433;42.678;23.360;2022-07-31T11:42:46;7.70;;;6.90;;
18606;SDS011;9433;42.678;23.360;2022-07-31T11:45:14;7.22;;;6.55;;
18606;SDS011;9433;42.678;23.360;2022-07-31T11:47:43;7.85;;;6.88;;
18606;SDS011;9433;42.678;23.360;2022-07-31T11:50:10;8.05;;;7.25;;
18606;SDS011;9433;42.678;23.360;2022-07-31T11:52:38;8.00;;;7.20;;
18606;SDS011;9433;42.678;23.360;2022-07-31T11:55:08;8.25;;;7.32;;
18606;SDS011;9433;42.678;23.360;2022-07-31T11:57:35;9.43;;;7.35;;
18606;SDS011;9433;42.678;23.360;2022-07-31T12:00:06;7.85;;;7.07;;
18606;SDS011;9433;42.678;23.360;2022-07-31T12:02:38;7.70;;;6.88;;
18606;SDS011;9433;42.678;23.360;2022-07-31T12:05:07;8.35;;;7.20;;
18606;SDS011;9433;42.678;23.360;2022-07-31T12:07:36;8.02;;;7.28;;
18606;SDS011;9433;42.678;23.360;2022-07-31T12:10:05;8.07;;;7.28;;
18606;SDS011;9433;42.678;23.360;2022-07-31T12:12:32;7.03;;;6.32;;
18606;SDS011;9433;42.678;23.360;2022-07-31T12:14:59;6.88;;;6.18;;
18606;SDS011;9433;42.678;23.360;2022-07-31T12:17:26;8.07;;;6.90;;
18606;SDS011;9433;42.678;23.360;2022-07-31T12:19:53;7.75;;;6.95;;
18606;SDS011;9433;42.678;23.360;2022-07-31T12:22:21;7.53;;;6.82;;
18606;SDS011;9433;42.678;23.360;2022-07-31T12:24:48;5.95;;;5.38;;
18606;SDS011;9433;42.678;23.360;2022-07-31T12:27:24;7.40;;;6.70;;
18606;SDS011;9433;42.678;23.360;2022-07-31T12:29:51;7.75;;;7.05;;
18606;SDS011;9433;42.678;23.360;2022-07-31T12:32:22;7.60;;;6.68;;
18606;SDS011;9433;42.678;23.360;2022-07-31T12:34:59;7.55;;;6.65;;
18606;SDS011;9433;42.678;23.360;2022-07-31T12:37:29;7.43;;;5.93;;
18606;SDS011;9433;42.678;23.360;2022-07-31T12:39:56;6.10;;;5.47;;
18606;SDS011;9433;42.678;23.360;2022-07-31T12:42:24;6.53;;;5.93;;
18606;SDS011;9433;42.678;23.360;2022-07-31T12:44:52;6.65;;;6.05;;
18606;SDS011;9433;42.678;23.360;2022-07-31T12:47:20;5.82;;;5.03;;
18606;SDS011;9433;42.678;23.360;2022-07-31T12:49:47;5.88;;;5.30;;
18606;SDS011;9433;42.678;23.360;2022-07-31T12:52:14;6.82;;;5.50;;
18606;SDS011;9433;42.678;23.360;2022-07-31T12:54:42;5.95;;;5.35;;
18606;SDS011;9433;42.678;23.360;2022-07-31T12:57:09;5.80;;;4.88;;
18606;SDS011;9433;42.678;23.360;2022-07-31T12:59:37;5.60;;;5.10;;
18606;SDS011;9433;42.678;23.360;2022-07-31T13:02:04;6.03;;;5.53;;
18606;SDS011;9433;42.678;23.360;2022-07-31T13:04:31;6.55;;;5.95;;
18606;SDS011;9433;42.678;23.360;2022-07-31T13:06:58;5.95;;;5.20;;
18606;SDS011;9433;42.678;23.360;2022-07-31T13:09:26;6.03;;;5.50;;
18606;SDS011;9433;42.678;23.360;2022-07-31T13:11:54;5.97;;;5.38;;
18606;SDS011;9433;42.678;23.360;2022-07-31T13:14:21;5.93;;;5.43;;
18606;SDS011;9433;42.678;23.360;2022-07-31T13:16:49;6.80;;;6.00;;
18606;SDS011;9433;42.678;23.360;2022-07-31T13:19:17;6.10;;;5.55;;
18606;SDS011;9433;42.678;23.360;2022-07-31T13:21:44;6.22;;;5.72;;
18606;SDS011;9433;42.678;23.360;2022-07-31T13:24:11;6.20;;;5.60;;
18606;SDS011;9433;42.678;23.360;2022-07-31T13:26:38;6.50;;;5.93;;
18606;SDS011;9433;42.678;23.360;2022-07-31T13:29:07;6.32;;;5.72;;
18606;SDS011;9433;42.678;23.360;2022-07-31T13:31:34;7.63;;;6.82;;
18606;SDS011;9433;42.678;23.360;2022-07-31T13:34:00;6.47;;;5.88;;
18606;SDS011;9433;42.678;23.360;2022-07-31T13:36:27;7.72;;;5.88;;
18606;SDS011;9433;42.678;23.360;2022-07-31T13:38:54;6.13;;;5.53;;
18606;SDS011;9433;42.678;23.360;2022-07-31T13:41:21;7.00;;;5.88;;
18606;SDS011;9433;42.678;23.360;2022-07-31T13:43:49;5.43;;;5.00;;
18606;SDS011;9433;42.678;23.360;2022-07-31T13:46:18;5.63;;;5.13;;
18606;SDS011;9433;42.678;23.360;2022-07-31T13:48:45;6.60;;;6.00;;
18606;SDS011;9433;42.678;23.360;2022-07-31T13:51:12;5.90;;;5.32;;
18606;SDS011;9433;42.678;23.360;2022-07-31T13:53:39;7.35;;;6.05;;
18606;SDS011;9433;42.678;23.360;2022-07-31T13:56:06;6.55;;;5.95;;
18606;SDS011;9433;42.678;23.360;2022-07-31T13:58:33;6.65;;;6.03;;
18606;SDS011;9433;42.678;23.360;2022-07-31T14:00:59;6.63;;;6.03;;
18606;SDS011;9433;42.678;23.360;2022-07-31T14:03:28;6.80;;;6.15;;
18606;SDS011;9433;42.678;23.360;2022-07-31T14:05:55;7.00;;;6.20;;
18606;SDS011;9433;42.678;23.360;2022-07-31T14:08:22;6.15;;;5.63;;
18606;SDS011;9433;42.678;23.360;2022-07-31T14:10:49;5.93;;;5.50;;
18606;SDS011;9433;42.678;23.360;2022-07-31T14:13:17;6.32;;;5.72;;
18606;SDS011;9433;42.678;23.360;2022-07-31T14:15:44;7.47;;;6.28;;
18606;SDS011;9433;42.678;23.360;2022-07-31T14:18:11;6.18;;;5.57;;
18606;SDS011;9433;42.678;23.360;2022-07-31T14:20:39;5.72;;;5.22;;
18606;SDS011;9433;42.678;23.360;2022-07-31T14:23:06;6.50;;;5.72;;
18606;SDS011;9433;42.678;23.360;2022-07-31T14:25:34;5.85;;;5.35;;
18606;SDS011;9433;42.678;23.360;2022-07-31T14:28:01;6.10;;;5.50;;
18606;SDS011;9433;42.678;23.360;2022-07-31T14:30:28;5.45;;;4.88;;
18606;SDS011;9433;42.678;23.360;2022-07-31T14:32:55;6.30;;;4.72;;
18606;SDS011;9433;42.678;23.360;2022-07-31T14:35:23;5.50;;;5.00;;
18606;SDS011;9433;42.678;23.360;2022-07-31T14:37:51;5.63;;;5.13;;
18606;SDS011;9433;42.678;23.360;2022-07-31T14:40:17;6.13;;;5.63;;
18606;SDS011;9433;42.678;23.360;2022-07-31T14:42:44;5.80;;;5.30;;
18606;SDS011;9433;42.678;23.360;2022-07-31T14:45:11;6.22;;;5.72;;